Terminal Aerodrome Forecast
Issued by NWS Bismarck, ND

Home | Current Version | Previous Version | Graphics & Text | Print | Product List | Glossary On
Versions: 1 2 3 4 5 6 7 8 9 10 11 12 13 14 15 16
779
FTUS43 KBIS 210524
TAFISN
TAF
KISN 210524Z 2106/2206 08012KT P6SM SCT150
     FM211300 02005KT P6SM VCTS SCT080CB BKN200
     FM211700 29010KT P6SM FEW070 FEW200
     FM220400 28007KT P6SM SKC=

USA.gov is the U.S. government's official web portal to all federal, state and local government web resources and services.